createdAt,value
2018-02-03T00:02:13.367Z,97366.89
2018-02-03T00:04:42.434Z,97357.06
2018-02-03T00:07:11.080Z,97359.02
2018-02-03T00:09:39.388Z,97359.17
2018-02-03T00:12:08.184Z,97364.95
2018-02-03T00:14:36.479Z,97359.39
2018-02-03T00:17:05.124Z,97360.82
2018-02-03T00:19:33.515Z,97361.69
2018-02-03T00:22:01.843Z,97360.26
2018-02-03T00:24:30.148Z,97362.18
2018-02-03T00:26:58.475Z,97360.84
2018-02-03T00:29:26.559Z,97354.34
2018-02-03T00:31:54.994Z,97358.23
2018-02-03T00:34:23.643Z,97350.63
2018-02-03T00:36:51.951Z,97355.38
2018-02-03T00:39:20.314Z,97347.53
2018-02-03T00:41:48.688Z,97342.90
2018-02-03T00:44:17.000Z,97347.05
2018-02-03T00:46:45.311Z,97343.09
2018-02-03T00:49:13.646Z,97337.66
2018-02-03T00:51:41.951Z,97341.84
2018-02-03T00:54:11.630Z,97342.38
2018-02-03T00:56:39.939Z,97332.41
2018-02-03T00:59:09.007Z,97332.80
2018-02-03T01:01:37.527Z,97335.56
2018-02-03T01:04:06.955Z,97326.66
2018-02-03T01:06:35.266Z,97325.98
2018-02-03T01:09:03.567Z,97322.69
2018-02-03T01:11:32.563Z,97322.05
2018-02-03T01:14:00.863Z,97325.95
2018-02-03T01:16:29.167Z,97330.05
2018-02-03T01:18:58.281Z,97326.81
2018-02-03T01:21:26.585Z,97335.13
2018-02-03T01:23:54.899Z,97333.16
2018-02-03T01:26:23.667Z,97328.59
2018-02-03T01:28:52.032Z,97328.06
2018-02-03T01:31:20.341Z,97331.02
2018-02-03T01:33:49.118Z,97334.09
2018-02-03T01:36:17.424Z,97327.84
2018-02-03T01:38:45.748Z,97338.45
2018-02-03T01:41:14.168Z,97330.09
2018-02-03T01:43:43.352Z,97323.89
2018-02-03T01:46:11.713Z,97324.14
2018-02-03T01:51:14.025Z,97327.05
2018-02-03T01:53:42.851Z,97318.64
2018-02-03T01:56:11.244Z,97316.97
2018-02-03T01:58:39.555Z,97317.84
2018-02-03T02:01:08.646Z,97313.48
2018-02-03T02:03:38.339Z,97310.10
2018-02-03T02:06:06.671Z,97299.74
2018-02-03T02:08:35.381Z,97300.36
2018-02-03T02:11:04.008Z,97291.55
2018-02-03T02:13:32.327Z,97292.33
2018-02-03T02:16:00.640Z,97292.80
2018-02-03T02:18:29.554Z,97285.36
2018-02-03T02:20:57.862Z,97289.09
2018-02-03T02:23:26.176Z,97283.23
2018-02-03T02:25:55.243Z,97282.84
2018-02-03T02:28:23.648Z,97277.77
2018-02-03T02:30:51.956Z,97278.05
2018-02-03T02:33:20.835Z,97277.97
2018-02-03T02:35:49.285Z,97279.50
2018-02-03T02:38:17.615Z,97282.25
2018-02-03T02:40:45.951Z,97273.81
2018-02-03T02:43:14.260Z,97262.64
2018-02-03T02:45:43.351Z,97268.55
2018-02-03T02:48:12.456Z,97262.73
2018-02-03T02:50:41.535Z,97267.97
2018-02-03T02:53:09.884Z,97264.78
2018-02-03T02:55:38.230Z,97260.44
2018-02-03T02:58:06.551Z,97261.91
2018-02-03T03:00:35.159Z,97260.14
2018-02-03T03:03:03.474Z,97267.45
2018-02-03T03:05:31.855Z,97272.53
2018-02-03T03:08:00.481Z,97269.43
2018-02-03T03:10:28.787Z,97265.83
2018-02-03T03:12:57.859Z,97256.95
2018-02-03T03:15:26.240Z,97256.80
2018-02-03T03:17:54.730Z,97257.73
2018-02-03T03:20:23.067Z,97256.23
2018-02-03T03:22:52.102Z,97264.33
2018-02-03T03:25:20.447Z,97257.04
2018-02-03T03:27:48.760Z,97261.83
2018-02-03T03:30:17.936Z,97260.88
2018-02-03T03:32:46.270Z,97259.27
2018-02-03T03:35:15.333Z,97261.91
2018-02-03T03:37:43.631Z,97259.43
2018-02-03T03:40:11.935Z,97254.83
2018-02-03T03:42:40.558Z,97257.31
2018-02-03T03:45:09.141Z,97265.54
2018-02-03T03:47:37.475Z,97254.24
2018-02-03T03:50:05.841Z,97262.80
2018-02-03T03:52:34.144Z,97256.08
2018-02-03T03:55:02.453Z,97258.95
2018-02-03T03:57:31.067Z,97263.03
2018-02-03T03:59:59.375Z,97256.44
2018-02-03T04:02:27.672Z,97257.09
2018-02-03T04:04:56.028Z,97255.26
2018-02-03T04:07:24.343Z,97255.03
2018-02-03T04:09:52.651Z,97252.09
2018-02-03T04:12:20.994Z,97255.80
2018-02-03T04:14:49.307Z,97250.17
2018-02-03T04:17:17.619Z,97253.12
2018-02-03T04:19:45.948Z,97258.02
2018-02-03T04:22:14.300Z,97259.75
2018-02-03T04:24:42.619Z,97262.91
2018-02-03T04:27:11.684Z,97259.31
2018-02-03T04:29:40.013Z,97257.73
2018-02-03T04:32:08.316Z,97258.95
2018-02-03T04:34:36.693Z,97253.80
2018-02-03T04:37:05.011Z,97249.30
2018-02-03T04:39:34.076Z,97253.88
2018-02-03T04:42:02.517Z,97245.98
2018-02-03T04:44:30.831Z,97254.07
2018-02-03T04:46:59.141Z,97253.54
2018-02-03T04:49:28.251Z,97251.36
2018-02-03T04:51:57.339Z,97248.33
2018-02-03T04:54:25.680Z,97243.31
2018-02-03T04:56:54.111Z,97245.95
2018-02-03T04:59:22.421Z,97255.33
2018-02-03T05:01:51.201Z,97254.30
2018-02-03T05:04:19.571Z,97257.19
2018-02-03T05:06:47.887Z,97254.36
2018-02-03T05:09:16.203Z,97252.31
2018-02-03T05:11:44.536Z,97254.36
2018-02-03T05:14:13.661Z,97249.97
2018-02-03T05:16:42.736Z,97251.66
2018-02-03T05:19:11.079Z,97253.17
2018-02-03T05:21:39.374Z,97256.38
2018-02-03T05:24:07.675Z,97257.58
2018-02-03T05:26:36.035Z,97256.11
2018-02-03T05:29:04.347Z,97257.36
2018-02-03T05:31:33.412Z,97256.02
2018-02-03T05:34:01.744Z,97265.03
2018-02-03T05:36:30.055Z,97263.64
2018-02-03T05:38:58.896Z,97260.30
2018-02-03T05:41:27.972Z,97260.72
2018-02-03T05:43:56.279Z,97264.31
2018-02-03T05:46:24.631Z,97262.53
2018-02-03T05:48:52.943Z,97261.83
2018-02-03T05:51:21.252Z,97263.62
2018-02-03T05:53:49.899Z,97266.28
2018-02-03T05:56:18.220Z,97268.67
2018-02-03T05:58:46.527Z,97266.33
2018-02-03T06:01:15.157Z,97267.20
2018-02-03T06:03:43.459Z,97261.06
2018-02-03T06:06:12.040Z,97272.00
2018-02-03T06:08:40.559Z,97270.48
2018-02-03T06:11:08.863Z,97277.36
2018-02-03T06:13:37.171Z,97280.20
2018-02-03T06:16:06.235Z,97276.53
2018-02-03T06:18:34.549Z,97281.55
2018-02-03T06:21:02.851Z,97274.36
2018-02-03T06:23:32.007Z,97270.14
2018-02-03T06:26:00.324Z,97269.45
2018-02-03T06:28:28.628Z,97269.39
2018-02-03T06:30:57.644Z,97267.58
2018-02-03T06:33:25.956Z,97267.38
2018-02-03T06:35:54.295Z,97269.36
2018-02-03T06:38:22.647Z,97267.80
2018-02-03T06:40:52.331Z,97268.27
2018-02-03T06:43:20.652Z,97273.23
2018-02-03T06:45:49.003Z,97271.40
2018-02-03T06:48:17.312Z,97264.00
2018-02-03T06:50:45.616Z,97257.62
2018-02-03T06:53:14.448Z,97257.30
2018-02-03T06:55:42.756Z,97257.25
2018-02-03T06:58:11.082Z,97252.01
2018-02-03T07:00:40.228Z,97258.73
2018-02-03T07:03:08.539Z,97263.94
2018-02-03T07:05:36.860Z,97256.84
2018-02-03T07:08:05.208Z,97256.81
2018-02-03T07:10:33.511Z,97259.63
2018-02-03T07:13:03.111Z,97264.92
2018-02-03T07:15:31.455Z,97265.66
2018-02-03T07:17:59.770Z,97263.87
2018-02-03T07:20:28.863Z,97269.86
2018-02-03T07:22:58.220Z,97264.95
2018-02-03T07:25:26.523Z,97279.27
2018-02-03T07:27:54.845Z,97272.52
2018-02-03T07:30:23.198Z,97277.06
2018-02-03T07:32:52.288Z,97278.66
2018-02-03T07:35:20.600Z,97283.40
2018-02-03T07:37:48.947Z,97279.63
2018-02-03T07:40:17.255Z,97279.48
2018-02-03T07:42:45.559Z,97277.69
2018-02-03T07:45:13.896Z,97283.29
2018-02-03T07:47:42.989Z,97272.78
2018-02-03T07:50:11.600Z,97276.70
2018-02-03T07:52:40.479Z,97275.36
2018-02-03T07:55:08.847Z,97277.41
2018-02-03T07:57:37.936Z,97282.29
2018-02-03T08:00:07.012Z,97287.33
2018-02-03T08:02:35.443Z,97290.72
2018-02-03T08:05:03.735Z,97295.48
2018-02-03T08:07:32.036Z,97296.52
2018-02-03T08:10:00.361Z,97296.89
2018-02-03T08:12:29.213Z,97297.03
2018-02-03T08:14:57.800Z,97293.73
2018-02-03T08:17:26.099Z,97293.23
2018-02-03T08:19:54.395Z,97296.05
2018-02-03T08:22:22.751Z,97295.13
2018-02-03T08:24:51.826Z,97285.66
2018-02-03T08:27:20.172Z,97288.16
2018-02-03T08:29:48.512Z,97288.04
2018-02-03T08:32:16.856Z,97281.17
2018-02-03T08:34:45.151Z,97281.38
2018-02-03T08:37:14.267Z,97284.59
2018-02-03T08:39:42.583Z,97278.64
2018-02-03T08:42:10.887Z,97283.28
2018-02-03T08:44:39.235Z,97280.09
2018-02-03T08:47:08.078Z,97288.66
2018-02-03T08:49:36.643Z,97283.89
2018-02-03T08:52:05.031Z,97288.10
2018-02-03T08:54:33.328Z,97286.45
2018-02-03T08:57:01.635Z,97284.84
2018-02-03T08:59:29.983Z,97283.92
2018-02-03T09:01:58.283Z,97279.48
2018-02-03T09:04:26.592Z,97283.48
2018-02-03T09:06:55.012Z,97277.45
2018-02-03T09:09:24.087Z,97274.64
2018-02-03T09:12:05.167Z,97281.16
2018-02-03T09:14:33.460Z,97278.27
2018-02-03T09:17:01.764Z,97271.20
2018-02-03T09:19:30.104Z,97269.52
2018-02-03T09:21:59.167Z,97270.18
2018-02-03T09:24:27.468Z,97266.63
2018-02-03T09:26:55.916Z,97267.63
2018-02-03T09:29:24.224Z,97263.38
2018-02-03T09:31:52.519Z,97264.48
2018-02-03T09:34:21.636Z,97258.89
2018-02-03T09:36:50.026Z,97259.96
2018-02-03T09:39:18.328Z,97258.03
2018-02-03T09:41:46.651Z,97254.59
2018-02-03T09:44:15.716Z,97251.55
2018-02-03T09:46:44.020Z,97251.48
2018-02-03T09:49:13.403Z,97255.14
2018-02-03T09:51:41.705Z,97256.09
2018-02-03T09:54:10.010Z,97252.97
2018-02-03T09:56:38.663Z,97260.14
2018-02-03T09:59:06.999Z,97254.90
2018-02-03T10:01:35.317Z,97248.36
2018-02-03T10:04:04.512Z,97247.41
2018-02-03T10:06:32.811Z,97248.31
2018-02-03T10:09:01.110Z,97247.86
2018-02-03T10:11:29.474Z,97246.66
2018-02-03T10:13:58.507Z,97238.88
2018-02-03T10:16:26.803Z,97235.03
2018-02-03T10:18:55.437Z,97235.45
2018-02-03T10:21:23.736Z,97230.89
2018-02-03T10:23:52.031Z,97235.25
2018-02-03T10:26:21.003Z,97230.78
2018-02-03T10:28:49.311Z,97232.36
2018-02-03T10:31:17.612Z,97228.95
2018-02-03T10:33:46.274Z,97226.37
2018-02-03T10:36:14.575Z,97214.67
2018-02-03T10:38:42.893Z,97217.63
2018-02-03T10:41:11.234Z,97219.59
2018-02-03T10:43:39.528Z,97224.38
2018-02-03T10:46:07.833Z,97221.61
2018-02-03T10:48:36.163Z,97217.34
2018-02-03T10:51:04.880Z,97220.29
2018-02-03T10:53:33.243Z,97221.61
2018-02-03T10:56:01.547Z,97212.25
2018-02-03T10:58:29.928Z,97212.73
2018-02-03T11:01:03.675Z,97212.52
2018-02-03T11:03:32.256Z,97214.38
2018-02-03T11:06:01.247Z,97210.39
2018-02-03T11:08:30.259Z,97207.93
2018-02-03T11:10:58.555Z,97207.20
2018-02-03T11:13:26.880Z,97200.05
2018-02-03T11:15:55.008Z,97204.41
2018-02-03T11:18:23.356Z,97206.89
2018-02-03T11:20:51.940Z,97208.04
2018-02-03T11:23:20.292Z,97205.84
2018-02-03T11:25:48.634Z,97207.25
2018-02-03T11:28:16.926Z,97204.23
2018-02-03T11:30:45.462Z,97202.42
2018-02-03T11:33:13.792Z,97205.98
2018-02-03T11:35:42.099Z,97197.55
2018-02-03T11:38:10.735Z,97192.91
2018-02-03T11:40:39.670Z,97191.58
2018-02-03T11:43:07.974Z,97187.91
2018-02-03T11:45:36.939Z,97198.70
2018-02-03T11:48:05.245Z,97196.45
2018-02-03T11:50:33.547Z,97189.06
2018-02-03T11:53:01.871Z,97191.23
2018-02-03T11:55:30.172Z,97186.88
2018-02-03T11:57:58.469Z,97191.48
2018-02-03T12:00:27.187Z,97190.23
2018-02-03T12:02:55.500Z,97185.20
2018-02-03T12:05:23.824Z,97185.41
2018-02-03T12:07:52.185Z,97174.93
2018-02-03T12:10:20.547Z,97171.42
2018-02-03T12:12:48.928Z,97169.12
2018-02-03T12:15:17.284Z,97171.24
2018-02-03T12:17:45.352Z,97167.98
2018-02-03T12:20:13.658Z,97171.23
2018-02-03T12:22:42.392Z,97168.63
2018-02-03T12:25:10.835Z,97178.41
2018-02-03T12:27:39.146Z,97174.23
2018-02-03T12:30:07.746Z,97174.62
2018-02-03T12:32:36.480Z,97168.89
2018-02-03T12:35:04.845Z,97167.53
2018-02-03T12:37:34.323Z,97160.54
2018-02-03T12:40:02.635Z,97162.91
2018-02-03T12:42:31.387Z,97160.92
2018-02-03T12:44:59.734Z,97157.61
2018-02-03T12:47:28.031Z,97161.09
2018-02-03T12:49:56.343Z,97154.98
2018-02-03T12:52:24.683Z,97154.61
2018-02-03T12:54:53.000Z,97157.02
2018-02-03T12:57:21.956Z,97154.70
2018-02-03T12:59:50.296Z,97148.26
2018-02-03T13:02:18.606Z,97154.78
2018-02-03T13:04:46.927Z,97147.45
2018-02-03T13:07:15.304Z,97149.66
2018-02-03T13:09:44.385Z,97147.06
2018-02-03T13:12:14.083Z,97139.45
2018-02-03T13:14:42.434Z,97132.11
2018-02-03T13:17:11.000Z,97121.88
2018-02-03T13:19:39.730Z,97131.59
2018-02-03T13:22:08.088Z,97125.82
2018-02-03T13:24:36.496Z,97114.52
2018-02-03T13:27:04.797Z,97122.22
2018-02-03T13:29:34.467Z,97124.12
2018-02-03T13:32:02.780Z,97121.92
2018-02-03T13:34:31.368Z,97121.05
2018-02-03T13:37:00.223Z,97117.23
2018-02-03T13:39:29.371Z,97109.78
2018-02-03T13:41:57.682Z,97118.01
2018-02-03T13:44:26.019Z,97120.42
2018-02-03T13:46:54.319Z,97122.20
2018-02-03T13:49:22.615Z,97122.47
2018-02-03T13:51:50.975Z,97114.67
2018-02-03T13:54:19.968Z,97117.20
2018-02-03T13:56:48.455Z,97123.73
2018-02-03T13:59:17.088Z,97120.76
2018-02-03T14:01:45.985Z,97119.52
2018-02-03T14:04:15.071Z,97120.38
2018-02-03T14:06:44.655Z,97118.10
2018-02-03T14:09:13.587Z,97113.51
2018-02-03T14:11:41.959Z,97117.48
2018-02-03T14:14:10.255Z,97117.00
2018-02-03T14:16:38.788Z,97113.47
2018-02-03T14:19:07.143Z,97117.58
2018-02-03T14:21:35.435Z,97113.41
2018-02-03T14:24:09.178Z,97116.61
2018-02-03T14:26:37.479Z,97115.91
2018-02-03T14:29:05.780Z,97120.09
2018-02-03T14:31:34.310Z,97122.69
2018-02-03T14:34:02.607Z,97125.46
2018-02-03T14:36:30.915Z,97123.77
2018-02-03T14:38:59.335Z,97122.73
2018-02-03T14:41:27.653Z,97125.98
2018-02-03T14:43:55.955Z,97124.69
2018-02-03T14:46:24.336Z,97125.55
2018-02-03T14:48:52.607Z,97129.23
2018-02-03T14:51:21.291Z,97135.67
2018-02-03T14:53:50.000Z,97134.63
2018-02-03T14:56:18.299Z,97137.83
2018-02-03T14:58:46.652Z,97133.42
2018-02-03T15:01:14.957Z,97138.03
2018-02-03T15:03:43.260Z,97138.25
2018-02-03T15:06:11.611Z,97138.58
2018-02-03T15:08:40.683Z,97140.06
2018-02-03T15:11:08.985Z,97138.38
2018-02-03T15:13:38.100Z,97137.95
2018-02-03T15:16:06.411Z,97137.89
2018-02-03T15:18:34.723Z,97138.18
2018-02-03T15:21:03.319Z,97135.96
2018-02-03T15:23:32.403Z,97134.55
2018-02-03T15:26:00.712Z,97137.17
2018-02-03T15:28:29.141Z,97144.98
2018-02-03T15:30:57.439Z,97141.97
2018-02-03T15:33:25.735Z,97141.77
2018-02-03T15:35:54.943Z,97145.11
2018-02-03T15:38:23.243Z,97144.92
2018-02-03T15:40:51.536Z,97149.93
2018-02-03T15:43:20.119Z,97153.95
2018-02-03T15:45:48.419Z,97145.52
2018-02-03T15:48:17.012Z,97150.27
2018-02-03T15:50:45.339Z,97155.97
2018-02-03T15:53:13.640Z,97160.19
2018-02-03T15:55:41.940Z,97167.73
2018-02-03T15:58:10.303Z,97165.61
2018-02-03T16:00:38.624Z,97169.62
2018-02-03T16:03:07.691Z,97175.30
2018-02-03T16:05:36.071Z,97176.02
2018-02-03T16:08:04.351Z,97174.80
2018-02-03T16:10:32.655Z,97170.18
2018-02-03T16:13:01.248Z,97178.84
2018-02-03T16:15:29.617Z,97182.47
2018-02-03T16:17:57.927Z,97186.04
2018-02-03T16:20:26.263Z,97185.86
2018-02-03T16:22:55.323Z,97182.74
2018-02-03T16:25:23.627Z,97182.20
2018-02-03T16:27:52.243Z,97181.52
2018-02-03T16:30:20.561Z,97182.74
2018-02-03T16:32:48.872Z,97183.25
2018-02-03T16:35:18.393Z,97186.05
2018-02-03T16:37:46.692Z,97187.94
2018-02-03T16:40:15.027Z,97191.64
2018-02-03T16:42:43.351Z,97193.94
2018-02-03T16:45:11.655Z,97193.61
2018-02-03T16:47:40.008Z,97197.08
2018-02-03T16:50:08.308Z,97193.33
2018-02-03T16:52:36.647Z,97197.96
2018-02-03T16:55:05.268Z,97197.37
2018-02-03T16:57:33.575Z,97201.36
2018-02-03T17:00:01.894Z,97206.55
2018-02-03T17:02:30.592Z,97207.91
2018-02-03T17:04:58.903Z,97208.51
2018-02-03T17:07:27.211Z,97208.84
2018-02-03T17:09:55.899Z,97208.99
2018-02-03T17:12:24.199Z,97203.09
2018-02-03T17:14:52.540Z,97210.33
2018-02-03T17:17:21.139Z,97211.44
2018-02-03T17:19:49.530Z,97209.08
2018-02-03T17:22:17.852Z,97209.16
2018-02-03T17:24:46.195Z,97215.38
2018-02-03T17:27:14.515Z,97218.59
2018-02-03T17:29:42.824Z,97217.95
2018-02-03T17:32:11.176Z,97212.08
2018-02-03T17:34:39.479Z,97218.91
2018-02-03T17:37:13.416Z,97217.88
2018-02-03T17:39:41.728Z,97219.99
2018-02-03T17:42:10.031Z,97219.05
2018-02-03T17:44:39.387Z,97232.48
2018-02-03T17:47:07.755Z,97219.98
2018-02-03T17:49:36.104Z,97229.89
2018-02-03T17:52:04.464Z,97228.55
2018-02-03T17:54:32.949Z,97228.16
2018-02-03T17:57:07.071Z,97227.61
2018-02-03T17:59:35.391Z,97229.72
2018-02-03T18:02:03.708Z,97230.27
2018-02-03T18:04:32.248Z,97234.36
2018-02-03T18:07:05.348Z,97243.79
2018-02-03T18:09:33.751Z,97242.47
2018-02-03T18:12:02.385Z,97238.98
2018-02-03T18:14:30.697Z,97247.80
2018-02-03T18:16:59.048Z,97242.06
2018-02-03T18:19:27.399Z,97240.98
2018-02-03T18:21:55.702Z,97237.58
2018-02-03T18:24:24.055Z,97242.78
2018-02-03T18:26:52.363Z,97244.11
2018-02-03T18:29:20.680Z,97241.98
2018-02-03T18:31:49.039Z,97243.88
2018-02-03T18:34:17.343Z,97239.80
2018-02-03T18:36:46.413Z,97237.44
2018-02-03T18:39:14.896Z,97233.76
2018-02-03T18:41:43.205Z,97241.12
2018-02-03T18:44:12.275Z,97244.42
2018-02-03T18:46:40.619Z,97250.25
2018-02-03T18:49:08.980Z,97250.94
2018-02-03T18:51:37.289Z,97245.22
2018-02-03T18:54:05.851Z,97249.36
2018-02-03T18:56:34.155Z,97254.55
2018-02-03T18:59:03.075Z,97257.63
2018-02-03T19:01:31.957Z,97260.34
2018-02-03T19:04:00.287Z,97265.80
2018-02-03T19:06:28.600Z,97270.97
2018-02-03T19:08:56.964Z,97270.80
2018-02-03T19:11:25.276Z,97267.89
2018-02-03T19:13:53.587Z,97271.66
2018-02-03T19:16:21.942Z,97267.97
2018-02-03T19:18:51.007Z,97268.61
2018-02-03T19:21:19.316Z,97270.34
2018-02-03T19:23:48.440Z,97279.20
2018-02-03T19:26:16.735Z,97276.62
2018-02-03T19:28:45.085Z,97278.80
2018-02-03T19:31:13.883Z,97276.39
2018-02-03T19:33:42.233Z,97280.16
2018-02-03T19:36:10.588Z,97280.94
2018-02-03T19:38:38.946Z,97277.80
2018-02-03T19:41:07.251Z,97279.02
2018-02-03T19:43:35.556Z,97282.70
2018-02-03T19:46:03.963Z,97279.31
2018-02-03T19:48:32.267Z,97282.14
2018-02-03T19:51:00.617Z,97282.14
2018-02-03T19:53:29.005Z,97283.48
2018-02-03T19:55:57.303Z,97281.05
2018-02-03T19:58:25.603Z,97281.81
2018-02-03T20:00:54.002Z,97282.14
2018-02-03T20:03:22.383Z,97290.31
2018-02-03T20:05:50.447Z,97286.71
2018-02-03T20:08:18.816Z,97290.39
2018-02-03T20:10:47.983Z,97289.52
2018-02-03T20:13:16.283Z,97285.84
2018-02-03T20:15:44.699Z,97294.23
2018-02-03T20:18:13.016Z,97296.98
2018-02-03T20:20:41.320Z,97296.45
2018-02-03T20:23:09.674Z,97297.20
2018-02-03T20:25:38.028Z,97298.46
2018-02-03T20:28:06.382Z,97295.14
2018-02-03T20:30:34.768Z,97308.23
2018-02-03T20:33:03.075Z,97310.63
2018-02-03T20:35:31.389Z,97310.27
2018-02-03T20:38:00.037Z,97314.82
2018-02-03T20:40:28.349Z,97321.38
2018-02-03T20:42:56.680Z,97317.41
2018-02-03T20:45:25.122Z,97317.02
2018-02-03T20:47:53.485Z,97323.47
2018-02-03T20:50:21.862Z,97323.88
2018-02-03T20:52:50.139Z,97323.80
2018-02-03T20:55:18.456Z,97329.20
2018-02-03T20:57:46.770Z,97321.27
2018-02-03T21:00:15.126Z,97320.26
2018-02-03T21:02:43.440Z,97324.16
2018-02-03T21:05:11.743Z,97327.84
2018-02-03T21:07:40.116Z,97332.87
2018-02-03T21:10:09.249Z,97333.05
2018-02-03T21:12:37.602Z,97331.63
2018-02-03T21:15:06.270Z,97336.50
2018-02-03T21:17:34.576Z,97335.47
2018-02-03T21:20:02.940Z,97336.61
2018-02-03T21:22:31.292Z,97342.38
2018-02-03T21:24:59.650Z,97346.02
2018-02-03T21:27:27.952Z,97343.91
2018-02-03T21:29:56.308Z,97344.77
2018-02-03T21:32:24.617Z,97346.58
2018-02-03T21:34:52.969Z,97345.05
2018-02-03T21:37:21.307Z,97347.13
2018-02-03T21:39:49.607Z,97344.95
2018-02-03T21:42:17.943Z,97352.69
2018-02-03T21:44:46.300Z,97358.75
2018-02-03T21:47:15.382Z,97358.73
2018-02-03T21:49:43.776Z,97358.84
2018-02-03T21:52:12.731Z,97358.55
2018-02-03T21:54:40.795Z,97358.47
2018-02-03T21:57:09.232Z,97356.80
2018-02-03T21:59:38.424Z,97357.97
2018-02-03T22:02:06.857Z,97358.56
2018-02-03T22:04:35.163Z,97362.27
2018-02-03T22:07:04.559Z,97360.25
2018-02-03T22:09:32.940Z,97360.62
2018-02-03T22:12:01.261Z,97367.77
2018-02-03T22:14:29.610Z,97363.91
2018-02-03T22:16:58.304Z,97370.12
2018-02-03T22:19:26.840Z,97373.10
2018-02-03T22:21:55.468Z,97372.53
2018-02-03T22:24:23.775Z,97378.08
2018-02-03T22:26:52.231Z,97380.16
2018-02-03T22:29:20.864Z,97383.64
2018-02-03T22:31:49.184Z,97384.60
2018-02-03T22:34:17.518Z,97386.34
2018-02-03T22:36:45.983Z,97387.08
2018-02-03T22:39:14.442Z,97387.09
2018-02-03T22:41:42.750Z,97385.30
2018-02-03T22:44:11.451Z,97390.45
2018-02-03T22:46:39.763Z,97400.28
2018-02-03T22:49:08.071Z,97401.02
2018-02-03T22:51:36.756Z,97402.13
2018-02-03T22:54:05.203Z,97407.39
2018-02-03T22:56:33.783Z,97407.61
2018-02-03T22:59:02.380Z,97410.80
2018-02-03T23:01:30.691Z,97410.80
2018-02-03T23:03:58.995Z,97420.41
2018-02-03T23:06:28.588Z,97419.23
2018-02-03T23:08:56.901Z,97423.78
2018-02-03T23:11:25.317Z,97424.26
2018-02-03T23:13:53.679Z,97432.67
2018-02-03T23:16:22.763Z,97426.03
2018-02-03T23:18:51.068Z,97427.20
2018-02-03T23:21:19.695Z,97432.19
2018-02-03T23:23:47.995Z,97431.98
2018-02-03T23:26:16.304Z,97438.63
2018-02-03T23:28:45.436Z,97439.69
2018-02-03T23:31:13.800Z,97442.94
2018-02-03T23:33:42.358Z,97443.29
2018-02-03T23:36:10.851Z,97447.45
2018-02-03T23:38:39.164Z,97447.84
2018-02-03T23:41:07.471Z,97447.16
2018-02-03T23:43:35.700Z,97455.08
2018-02-03T23:46:04.011Z,97450.88
2018-02-03T23:48:32.184Z,97456.36
2018-02-03T23:51:00.939Z,97459.23
2018-02-03T23:53:29.255Z,97462.13
2018-02-03T23:55:57.567Z,97460.34
2018-02-03T23:58:26.049Z,97469.63
